Time,TemperatureF,DewpointF,PressureIn,WindDirection,WindDirectionDegrees,WindSpeedMPH,WindSpeedGustMPH,Humidity,HourlyPrecipIn,Conditions,Clouds,dailyrainin,SolarRadiationWatts/m^2,SoftwareType,DateUTC
2013-05-29 00:01:00,48.0,42.0,-100.00,SSW,194,3.0,9.0,79,0.00,,,0.00,0.000000,,2013-05-29 07:01:00,
2013-05-29 00:11:00,48.0,42.0,-100.00,SSW,194,3.0,9.0,79,0.00,,,0.00,0.000000,,2013-05-29 07:11:00,
2013-05-29 00:34:00,45.0,44.0,-100.00,South,189,2.0,13.0,96,0.05,,,0.05,0.000000,,2013-05-29 07:34:00,
2013-05-29 00:42:00,45.0,44.0,-100.00,South,189,2.0,13.0,96,0.05,,,0.05,0.000000,,2013-05-29 07:42:00,
2013-05-29 00:52:00,45.0,44.0,-100.00,South,189,2.0,13.0,96,0.05,,,0.05,0.000000,,2013-05-29 07:52:00,
2013-05-29 01:02:00,45.0,44.0,-100.00,South,189,2.0,13.0,96,0.05,,,0.05,0.000000,,2013-05-29 08:02:00,
2013-05-29 01:11:00,45.0,44.0,-100.00,South,189,2.0,13.0,96,0.05,,,0.05,0.000000,,2013-05-29 08:11:00,
2013-05-29 01:32:00,45.0,44.0,-100.00,SSE,152,2.0,4.0,98,0.04,,,0.09,0.000000,,2013-05-29 08:32:00,
2013-05-29 01:42:00,45.0,44.0,-100.00,SSE,152,2.0,4.0,98,0.04,,,0.09,0.000000,,2013-05-29 08:42:00,
2013-05-29 01:52:00,45.0,44.0,-100.00,SSE,152,2.0,4.0,98,0.04,,,0.09,0.000000,,2013-05-29 08:52:00,
2013-05-29 02:01:00,45.0,44.0,-100.00,SSE,152,2.0,4.0,98,0.04,,,0.09,0.000000,,2013-05-29 09:01:00,
2013-05-29 02:11:00,45.0,44.0,-100.00,SSE,152,2.0,4.0,98,0.04,,,0.09,0.000000,,2013-05-29 09:11:00,
2013-05-29 02:33:00,45.0,45.0,-100.00,SE,128,1.0,4.0,99,0.06,,,0.15,0.000000,,2013-05-29 09:33:00,
2013-05-29 02:42:00,45.0,45.0,-100.00,SE,128,1.0,4.0,99,0.06,,,0.15,0.000000,,2013-05-29 09:42:00,
2013-05-29 02:52:00,45.0,45.0,-100.00,SE,128,1.0,4.0,99,0.06,,,0.15,0.000000,,2013-05-29 09:52:00,
2013-05-29 03:02:00,45.0,45.0,-100.00,SE,128,1.0,4.0,99,0.06,,,0.15,0.000000,,2013-05-29 10:02:00,
2013-05-29 03:12:00,45.0,45.0,-100.00,SE,128,1.0,4.0,99,0.06,,,0.15,0.000000,,2013-05-29 10:12:00,
2013-05-29 03:33:00,45.0,45.0,-100.00,South,174,4.0,7.0,99,0.04,,,0.19,0.000000,,2013-05-29 10:33:00,
2013-05-29 03:42:00,45.0,45.0,-100.00,South,174,4.0,7.0,99,0.04,,,0.19,0.000000,,2013-05-29 10:42:00,
2013-05-29 03:53:00,45.0,45.0,-100.00,South,174,4.0,7.0,99,0.04,,,0.19,0.000000,,2013-05-29 10:53:00,
2013-05-29 04:02:00,45.0,45.0,-100.00,South,174,4.0,7.0,99,0.04,,,0.19,0.000000,,2013-05-29 11:02:00,
2013-05-29 04:11:00,45.0,45.0,-100.00,South,174,4.0,7.0,99,0.04,,,0.19,0.000000,,2013-05-29 11:11:00,
2013-05-29 04:32:00,43.0,42.0,-100.00,South,186,4.0,10.0,96,0.01,,,0.20,0.000000,,2013-05-29 11:32:00,
2013-05-29 04:42:00,43.0,42.0,-100.00,South,186,4.0,10.0,96,0.01,,,0.20,0.000000,,2013-05-29 11:42:00,
2013-05-29 04:52:00,43.0,42.0,-100.00,South,186,4.0,10.0,96,0.01,,,0.20,0.000000,,2013-05-29 11:52:00,
2013-05-29 05:01:00,43.0,42.0,-100.00,South,186,4.0,10.0,96,0.01,,,0.20,0.000000,,2013-05-29 12:01:00,
2013-05-29 05:11:00,43.0,42.0,-100.00,South,186,4.0,10.0,96,0.01,,,0.20,0.000000,,2013-05-29 12:11:00,
2013-05-29 05:32:00,42.0,40.0,-100.00,SSW,213,5.0,12.0,92,0.01,,,0.21,0.000000,,2013-05-29 12:32:00,
2013-05-29 05:42:00,42.0,40.0,-100.00,SSW,213,5.0,12.0,92,0.01,,,0.21,0.000000,,2013-05-29 12:42:00,
2013-05-29 05:52:00,42.0,40.0,-100.00,SSW,213,5.0,12.0,92,0.01,,,0.21,0.000000,,2013-05-29 12:52:00,
2013-05-29 06:01:00,42.0,40.0,-100.00,SSW,213,5.0,12.0,92,0.01,,,0.21,0.000000,,2013-05-29 13:01:00,
2013-05-29 06:11:00,42.0,40.0,-100.00,SSW,213,5.0,12.0,92,0.01,,,0.21,0.000000,,2013-05-29 13:11:00,
2013-05-29 06:32:00,40.0,39.0,-100.00,NE,49,3.0,11.0,95,0.00,,,0.21,14.000000,,2013-05-29 13:32:00,
2013-05-29 06:42:00,40.0,39.0,-100.00,NE,49,3.0,11.0,95,0.00,,,0.21,14.000000,,2013-05-29 13:42:00,
2013-05-29 06:53:00,40.0,39.0,-100.00,NE,49,3.0,11.0,95,0.00,,,0.21,14.000000,,2013-05-29 13:53:00,
2013-05-29 07:01:00,40.0,39.0,-100.00,NE,49,3.0,11.0,95,0.00,,,0.21,14.000000,,2013-05-29 14:01:00,
2013-05-29 07:11:00,40.0,39.0,-100.00,NE,49,3.0,11.0,95,0.00,,,0.21,14.000000,,2013-05-29 14:11:00,
2013-05-29 07:32:00,43.0,39.0,-100.00,South,176,5.0,14.0,85,0.00,,,0.21,87.000000,,2013-05-29 14:32:00,
2013-05-29 07:42:00,43.0,39.0,-100.00,South,176,5.0,14.0,85,0.00,,,0.21,87.000000,,2013-05-29 14:42:00,
2013-05-29 07:52:00,43.0,39.0,-100.00,South,176,5.0,14.0,85,0.00,,,0.21,87.000000,,2013-05-29 14:52:00,
2013-05-29 08:01:00,43.0,39.0,-100.00,South,176,5.0,14.0,85,0.00,,,0.21,87.000000,,2013-05-29 15:01:00,
2013-05-29 08:11:00,43.0,39.0,-100.00,South,176,5.0,14.0,85,0.00,,,0.21,87.000000,,2013-05-29 15:11:00,
2013-05-29 08:33:00,49.0,41.0,-100.00,SSW,199,8.0,20.0,74,0.00,,,0.21,281.000000,,2013-05-29 15:33:00,
2013-05-29 08:42:00,49.0,41.0,-100.00,SSW,199,8.0,20.0,74,0.00,,,0.21,281.000000,,2013-05-29 15:42:00,
2013-05-29 08:53:00,49.0,41.0,-100.00,SSW,199,8.0,20.0,74,0.00,,,0.21,281.000000,,2013-05-29 15:53:00,
2013-05-29 09:03:00,49.0,41.0,-100.00,SSW,199,8.0,20.0,74,0.00,,,0.21,281.000000,,2013-05-29 16:03:00,
2013-05-29 09:12:00,49.0,41.0,-100.00,SSW,199,8.0,20.0,74,0.00,,,0.21,281.000000,,2013-05-29 16:12:00,
2013-05-29 09:33:00,49.0,37.0,-100.00,SW,216,6.0,21.0,64,0.00,,,0.21,430.000000,,2013-05-29 16:33:00,
2013-05-29 09:42:00,49.0,37.0,-100.00,SW,216,6.0,21.0,64,0.00,,,0.21,430.000000,,2013-05-29 16:42:00,
2013-05-29 09:52:00,49.0,37.0,-100.00,SW,216,6.0,21.0,64,0.00,,,0.21,430.000000,,2013-05-29 16:52:00,
2013-05-29 10:02:00,49.0,37.0,-100.00,SW,216,6.0,21.0,64,0.00,,,0.21,430.000000,,2013-05-29 17:02:00,
2013-05-29 10:11:00,49.0,37.0,-100.00,SW,216,6.0,21.0,64,0.00,,,0.21,430.000000,,2013-05-29 17:11:00,
2013-05-29 10:32:00,51.0,38.0,-100.00,WSW,240,8.0,17.0,62,0.00,,,0.21,334.000000,,2013-05-29 17:32:00,
2013-05-29 10:43:00,51.0,38.0,-100.00,WSW,240,8.0,17.0,62,0.00,,,0.21,334.000000,,2013-05-29 17:43:00,
2013-05-29 10:52:00,51.0,38.0,-100.00,WSW,240,8.0,17.0,62,0.00,,,0.21,334.000000,,2013-05-29 17:52:00,
2013-05-29 11:01:00,51.0,38.0,-100.00,WSW,240,8.0,17.0,62,0.00,,,0.21,334.000000,,2013-05-29 18:01:00,
2013-05-29 11:13:00,51.0,38.0,-100.00,WSW,240,8.0,17.0,62,0.00,,,0.21,334.000000,,2013-05-29 18:13:00,
2013-05-29 11:32:00,53.0,37.0,-100.00,WSW,251,11.0,25.0,55,0.00,,,0.21,415.000000,,2013-05-29 18:32:00,
2013-05-29 11:42:00,53.0,37.0,-100.00,WSW,251,11.0,25.0,55,0.00,,,0.21,415.000000,,2013-05-29 18:42:00,
2013-05-29 11:52:00,53.0,37.0,-100.00,WSW,251,11.0,25.0,55,0.00,,,0.21,415.000000,,2013-05-29 18:52:00,
2013-05-29 12:01:00,53.0,37.0,-100.00,WSW,251,11.0,25.0,55,0.00,,,0.21,415.000000,,2013-05-29 19:01:00,
2013-05-29 12:11:00,53.0,37.0,-100.00,WSW,251,11.0,25.0,55,0.00,,,0.21,415.000000,,2013-05-29 19:11:00,
2013-05-29 12:32:00,54.0,40.0,-100.00,SW,223,9.0,29.0,59,0.00,,,0.21,102.000000,,2013-05-29 19:32:00,
2013-05-29 12:44:00,54.0,40.0,-100.00,SW,223,9.0,29.0,59,0.00,,,0.21,102.000000,,2013-05-29 19:44:00,
2013-05-29 12:53:00,54.0,40.0,-100.00,SW,223,9.0,29.0,59,0.00,,,0.21,102.000000,,2013-05-29 19:53:00,
2013-05-29 13:02:00,54.0,40.0,-100.00,SW,223,9.0,29.0,59,0.00,,,0.21,102.000000,,2013-05-29 20:02:00,
2013-05-29 13:11:00,54.0,40.0,-100.00,SW,223,9.0,29.0,59,0.00,,,0.21,102.000000,,2013-05-29 20:11:00,
2013-05-29 13:33:00,55.0,39.0,-100.00,West,264,12.0,29.0,54,0.00,,,0.21,328.000000,,2013-05-29 20:33:00,
2013-05-29 13:42:00,55.0,39.0,-100.00,West,264,12.0,29.0,54,0.00,,,0.21,328.000000,,2013-05-29 20:42:00,
2013-05-29 13:52:00,55.0,39.0,-100.00,West,264,12.0,29.0,54,0.00,,,0.21,328.000000,,2013-05-29 20:52:00,
2013-05-29 14:02:00,55.0,39.0,-100.00,West,264,12.0,29.0,54,0.00,,,0.21,328.000000,,2013-05-29 21:02:00,
2013-05-29 14:12:00,55.0,39.0,-100.00,West,264,12.0,29.0,54,0.00,,,0.21,328.000000,,2013-05-29 21:12:00,
2013-05-29 14:33:00,56.0,35.0,-100.00,SW,234,11.0,27.0,45,0.00,,,0.21,1062.000000,,2013-05-29 21:33:00,
2013-05-29 14:44:00,56.0,35.0,-100.00,SW,234,11.0,27.0,45,0.00,,,0.21,1062.000000,,2013-05-29 21:44:00,
2013-05-29 14:53:00,56.0,35.0,-100.00,SW,234,11.0,27.0,45,0.00,,,0.21,1062.000000,,2013-05-29 21:53:00,
2013-05-29 15:03:00,56.0,35.0,-100.00,SW,234,11.0,27.0,45,0.00,,,0.21,1062.000000,,2013-05-29 22:03:00,
2013-05-29 15:12:00,56.0,35.0,-100.00,SW,234,11.0,27.0,45,0.00,,,0.21,1062.000000,,2013-05-29 22:12:00,
2013-05-29 15:34:00,56.0,37.0,-100.00,WSW,240,13.0,27.0,49,0.00,,,0.21,1036.000000,,2013-05-29 22:34:00,
2013-05-29 15:42:00,56.0,37.0,-100.00,WSW,240,13.0,27.0,49,0.00,,,0.21,1036.000000,,2013-05-29 22:42:00,
2013-05-29 15:53:00,56.0,37.0,-100.00,WSW,240,13.0,27.0,49,0.00,,,0.21,1036.000000,,2013-05-29 22:53:00,
2013-05-29 16:02:00,56.0,37.0,-100.00,WSW,240,13.0,27.0,49,0.00,,,0.21,1036.000000,,2013-05-29 23:02:00,
2013-05-29 16:12:00,56.0,37.0,-100.00,WSW,240,13.0,27.0,49,0.00,,,0.21,1036.000000,,2013-05-29 23:12:00,
2013-05-29 16:33:00,55.0,37.0,-100.00,WSW,244,9.0,24.0,51,0.00,,,0.21,919.000000,,2013-05-29 23:33:00,
2013-05-29 16:42:00,55.0,37.0,-100.00,WSW,244,9.0,24.0,51,0.00,,,0.21,919.000000,,2013-05-29 23:42:00,
2013-05-29 16:53:00,55.0,37.0,-100.00,WSW,244,9.0,24.0,51,0.00,,,0.21,919.000000,,2013-05-29 23:53:00,
2013-05-29 17:01:00,55.0,37.0,-100.00,WSW,244,9.0,24.0,51,0.00,,,0.21,919.000000,,2013-05-30 00:01:00,
2013-05-29 17:11:00,55.0,37.0,-100.00,WSW,244,9.0,24.0,51,0.00,,,0.21,919.000000,,2013-05-30 00:11:00,
2013-05-29 18:32:00,53.0,37.0,-100.00,SW,231,9.0,22.0,55,-99.99,,,-99.99,620.000000,,2013-05-30 01:32:00,
2013-05-29 18:42:00,53.0,37.0,-100.00,SW,231,9.0,22.0,55,-99.99,,,-99.99,620.000000,,2013-05-30 01:42:00,
2013-05-29 18:52:00,53.0,37.0,-100.00,SW,231,9.0,22.0,55,-99.99,,,-99.99,620.000000,,2013-05-30 01:52:00,
2013-05-29 19:01:00,53.0,37.0,-100.00,SW,231,9.0,22.0,55,-99.99,,,-99.99,620.000000,,2013-05-30 02:01:00,
2013-05-29 19:11:00,53.0,37.0,-100.00,SW,231,9.0,22.0,55,-99.99,,,-99.99,620.000000,,2013-05-30 02:11:00,
2013-05-29 19:32:00,50.0,36.0,-100.00,SW,216,7.0,20.0,59,0.00,,,0.21,311.000000,,2013-05-30 02:32:00,
2013-05-29 19:42:00,50.0,36.0,-100.00,SW,216,7.0,20.0,59,0.00,,,0.21,311.000000,,2013-05-30 02:42:00,
2013-05-29 19:52:00,50.0,36.0,-100.00,SW,216,7.0,20.0,59,0.00,,,0.21,311.000000,,2013-05-30 02:52:00,
2013-05-29 20:01:00,50.0,36.0,-100.00,SW,216,7.0,20.0,59,0.00,,,0.21,311.000000,,2013-05-30 03:01:00,
2013-05-29 20:11:00,50.0,36.0,-100.00,SW,216,7.0,20.0,59,0.00,,,0.21,311.000000,,2013-05-30 03:11:00,
2013-05-29 20:33:00,45.0,32.0,-100.00,WSW,242,9.0,22.0,61,0.00,,,0.21,50.000000,,2013-05-30 03:33:00,
2013-05-29 20:43:00,45.0,32.0,-100.00,WSW,242,9.0,22.0,61,0.00,,,0.21,50.000000,,2013-05-30 03:43:00,
2013-05-29 20:53:00,45.0,32.0,-100.00,WSW,242,9.0,22.0,61,0.00,,,0.21,50.000000,,2013-05-30 03:53:00,
2013-05-29 21:02:00,45.0,32.0,-100.00,WSW,242,9.0,22.0,61,0.00,,,0.21,50.000000,,2013-05-30 04:02:00,
2013-05-29 21:12:00,45.0,32.0,-100.00,WSW,242,9.0,22.0,61,0.00,,,0.21,50.000000,,2013-05-30 04:12:00,
2013-05-29 21:33:00,43.0,35.0,-100.00,SSW,212,5.0,23.0,74,0.00,,,0.21,3.000000,,2013-05-30 04:33:00,
2013-05-29 21:42:00,43.0,35.0,-100.00,SSW,212,5.0,23.0,74,0.00,,,0.21,3.000000,,2013-05-30 04:42:00,
2013-05-29 21:53:00,43.0,35.0,-100.00,SSW,212,5.0,23.0,74,0.00,,,0.21,3.000000,,2013-05-30 04:53:00,
2013-05-29 22:02:00,43.0,35.0,-100.00,SSW,212,5.0,23.0,74,0.00,,,0.21,3.000000,,2013-05-30 05:02:00,
2013-05-29 22:12:00,43.0,35.0,-100.00,SSW,212,5.0,23.0,74,0.00,,,0.21,3.000000,,2013-05-30 05:12:00,
2013-05-29 22:32:00,42.0,33.0,-100.00,South,185,6.0,20.0,71,0.00,,,0.21,0.000000,,2013-05-30 05:32:00,
2013-05-29 22:42:00,42.0,33.0,-100.00,South,185,6.0,20.0,71,0.00,,,0.21,0.000000,,2013-05-30 05:42:00,
2013-05-29 22:52:00,42.0,33.0,-100.00,South,185,6.0,20.0,71,0.00,,,0.21,0.000000,,2013-05-30 05:52:00,
2013-05-29 23:01:00,42.0,33.0,-100.00,South,185,6.0,20.0,71,0.00,,,0.21,0.000000,,2013-05-30 06:01:00,
2013-05-29 23:12:00,42.0,33.0,-100.00,South,185,6.0,20.0,71,0.00,,,0.21,0.000000,,2013-05-30 06:12:00,
2013-05-29 23:32:00,42.0,34.0,-100.00,West,263,5.0,10.0,72,0.00,,,0.21,0.000000,,2013-05-30 06:32:00,
2013-05-29 23:42:00,42.0,34.0,-100.00,West,263,5.0,10.0,72,0.00,,,0.21,0.000000,,2013-05-30 06:42:00,
2013-05-29 23:52:00,42.0,34.0,-100.00,West,263,5.0,10.0,72,0.00,,,0.21,0.000000,,2013-05-30 06:52:00,